createdAt,value
2018-05-12T00:02:26.377Z,15.10
2018-05-12T00:04:53.901Z,15.10
2018-05-12T00:07:21.410Z,15.10
2018-05-12T00:09:48.937Z,15.10
2018-05-12T00:12:16.437Z,15.10
2018-05-12T00:14:44.705Z,15.00
2018-05-12T00:17:12.234Z,15.00
2018-05-12T00:19:39.733Z,15.00
2018-05-12T00:22:07.261Z,15.00
2018-05-12T00:24:34.765Z,15.00
2018-05-12T00:27:02.279Z,14.90
2018-05-12T00:29:30.573Z,14.90
2018-05-12T00:31:58.077Z,14.90
2018-05-12T00:34:25.621Z,14.90
2018-05-12T00:36:53.129Z,14.90
2018-05-12T00:39:20.625Z,14.90
2018-05-12T00:41:48.143Z,14.90
2018-05-12T00:44:15.641Z,14.80
2018-05-12T00:46:43.168Z,14.80
2018-05-12T00:49:10.693Z,14.80
2018-05-12T00:51:38.193Z,14.80
2018-05-12T00:54:06.482Z,14.70
2018-05-12T00:56:34.750Z,14.70
2018-05-12T00:59:02.279Z,14.70
2018-05-12T01:01:29.785Z,14.70
2018-05-12T01:03:57.281Z,14.70
2018-05-12T01:06:25.569Z,14.70
2018-05-12T01:08:53.845Z,14.60
2018-05-12T01:11:21.373Z,14.70
2018-05-12T01:13:48.877Z,14.60
2018-05-12T01:16:16.373Z,14.60
2018-05-12T01:18:44.658Z,14.50
2018-05-12T01:21:12.932Z,14.60
2018-05-12T01:23:41.217Z,14.50
2018-05-12T01:26:09.489Z,14.50
2018-05-12T01:28:37.021Z,14.40
2018-05-12T01:31:04.529Z,14.50
2018-05-12T01:33:32.029Z,14.40
2018-05-12T01:36:00.319Z,14.40
2018-05-12T01:38:28.593Z,14.40
2018-05-12T01:40:56.122Z,14.40
2018-05-12T01:43:23.625Z,14.40
2018-05-12T01:45:51.132Z,14.30
2018-05-12T01:48:18.706Z,14.40
2018-05-12T01:50:46.214Z,14.40
2018-05-12T01:53:13.745Z,14.30
2018-05-12T01:55:41.245Z,14.30
2018-05-12T01:58:08.741Z,14.30
2018-05-12T02:00:37.052Z,14.20
2018-05-12T02:03:05.329Z,14.10
2018-05-12T02:05:32.855Z,14.10
2018-05-12T02:08:00.357Z,14.10
2018-05-12T02:10:27.885Z,14.20
2018-05-12T02:12:55.385Z,14.10
2018-05-12T02:15:22.887Z,14.10
2018-05-12T02:17:51.173Z,14.00
2018-05-12T02:20:19.449Z,14.00
2018-05-12T02:22:46.974Z,14.00
2018-05-12T02:25:14.495Z,14.00
2018-05-12T02:27:41.997Z,14.00
2018-05-12T02:30:09.523Z,13.90
2018-05-12T02:32:37.025Z,13.80
2018-05-12T02:35:05.317Z,13.70
2018-05-12T02:37:33.585Z,13.70
2018-05-12T02:40:01.115Z,13.70
2018-05-12T02:42:28.613Z,13.70
2018-05-12T02:44:56.137Z,13.70
2018-05-12T02:47:23.640Z,13.70
2018-05-12T02:49:51.202Z,13.70
2018-05-12T02:52:18.706Z,13.60
2018-05-12T02:54:46.217Z,13.60
2018-05-12T02:57:13.762Z,13.70
2018-05-12T02:59:42.038Z,13.60
2018-05-12T03:02:10.358Z,13.60
2018-05-12T03:04:37.867Z,13.60
2018-05-12T03:07:05.385Z,13.50
2018-05-12T03:09:33.658Z,13.50
2018-05-12T03:12:01.943Z,13.50
2018-05-12T03:14:30.221Z,13.50
2018-05-12T03:16:57.744Z,13.50
2018-05-12T03:19:25.249Z,13.50
2018-05-12T03:21:52.747Z,13.50
2018-05-12T03:24:21.057Z,13.50
2018-05-12T03:26:48.570Z,13.50
2018-05-12T03:29:16.097Z,13.50
2018-05-12T03:31:43.609Z,13.50
2018-05-12T03:34:11.141Z,13.50
2018-05-12T03:36:38.645Z,13.40
2018-05-12T03:39:06.173Z,13.40
2018-05-12T03:41:33.673Z,13.40
2018-05-12T03:44:01.197Z,13.50
2018-05-12T03:46:29.470Z,13.50
2018-05-12T03:48:57.001Z,13.50
2018-05-12T03:51:24.501Z,13.50
2018-05-12T03:53:52.006Z,13.50
2018-05-12T03:56:20.293Z,13.50
2018-05-12T03:58:48.579Z,13.50
2018-05-12T04:01:16.865Z,13.50
2018-05-12T04:03:45.153Z,13.50
2018-05-12T04:06:25.316Z,13.50
2018-05-12T04:09:05.437Z,13.50
2018-05-12T04:11:44.780Z,13.50
2018-05-12T04:14:12.273Z,13.60
2018-05-12T04:16:39.802Z,13.50
2018-05-12T04:19:07.302Z,13.50
2018-05-12T04:21:34.805Z,13.50
2018-05-12T04:24:02.329Z,13.60
2018-05-12T04:26:29.828Z,13.50
2018-05-12T04:28:57.361Z,13.60
2018-05-12T04:31:24.866Z,13.60
2018-05-12T04:33:52.385Z,13.60
2018-05-12T04:36:20.005Z,13.60
2018-05-12T04:38:47.533Z,13.60
2018-05-12T04:41:15.043Z,13.60
2018-05-12T04:43:42.822Z,13.70
2018-05-12T04:46:10.325Z,13.70
2018-05-12T04:48:38.598Z,13.70
2018-05-12T04:51:06.125Z,13.70
2018-05-12T04:53:33.628Z,13.70
2018-05-12T04:56:01.158Z,13.80
2018-05-12T04:58:28.661Z,13.70
2018-05-12T05:00:56.181Z,13.80
2018-05-12T05:03:23.692Z,13.80
2018-05-12T05:05:51.213Z,13.80
2018-05-12T05:08:18.819Z,13.80
2018-05-12T05:10:46.253Z,13.80
2018-05-12T05:13:14.517Z,14.00
2018-05-12T05:15:42.022Z,13.90
2018-05-12T05:18:09.541Z,14.00
2018-05-12T05:20:37.046Z,14.00
2018-05-12T05:23:05.337Z,14.10
2018-05-12T05:25:32.842Z,14.10
2018-05-12T05:28:00.365Z,14.10
2018-05-12T05:30:28.631Z,14.20
2018-05-12T05:32:56.157Z,14.10
2018-05-12T05:35:23.670Z,14.20
2018-05-12T05:37:51.219Z,14.20
2018-05-12T05:40:18.731Z,14.30
2018-05-12T05:42:47.002Z,14.30
2018-05-12T05:45:14.525Z,14.30
2018-05-12T05:47:42.021Z,14.30
2018-05-12T05:50:09.619Z,14.40
2018-05-12T05:52:37.072Z,14.40
2018-05-12T05:55:04.593Z,14.40
2018-05-12T05:57:32.093Z,14.50
2018-05-12T05:59:59.630Z,14.50
2018-05-12T06:02:27.133Z,14.60
2018-05-12T06:04:54.633Z,14.60
2018-05-12T06:07:22.158Z,14.60
2018-05-12T06:09:49.657Z,14.70
2018-05-12T06:12:17.183Z,14.80
2018-05-12T06:14:44.685Z,14.90
2018-05-12T06:17:12.218Z,15.00
2018-05-12T06:19:40.485Z,15.20
2018-05-12T06:22:08.010Z,15.20
2018-05-12T06:24:35.509Z,15.30
2018-05-12T06:27:03.032Z,15.40
2018-05-12T06:29:30.553Z,15.50
2018-05-12T06:31:58.057Z,15.60
2018-05-12T06:34:25.603Z,15.70
2018-05-12T06:36:53.106Z,15.80
2018-05-12T06:39:20.625Z,16.00
2018-05-12T06:41:48.129Z,16.10
2018-05-12T06:44:16.737Z,16.30
2018-05-12T06:46:44.237Z,16.30
2018-05-12T06:49:11.741Z,16.40
2018-05-12T06:51:39.266Z,16.60
2018-05-12T06:54:06.776Z,16.70
2018-05-12T06:56:34.301Z,16.80
2018-05-12T06:59:01.805Z,17.00
2018-05-12T07:01:29.446Z,17.10
2018-05-12T07:03:56.873Z,17.10
2018-05-12T07:06:24.403Z,17.20
2018-05-12T07:08:51.905Z,17.20
2018-05-12T07:11:19.474Z,17.30
2018-05-12T07:13:46.976Z,17.40
2018-05-12T07:16:15.245Z,17.60
2018-05-12T07:18:42.776Z,17.60
2018-05-12T07:21:10.288Z,17.70
2018-05-12T07:23:38.574Z,17.80
2018-05-12T07:26:06.074Z,17.80
2018-05-12T07:28:33.608Z,18.00
2018-05-12T07:31:01.119Z,18.10
2018-05-12T07:33:28.638Z,18.20
2018-05-12T07:35:56.145Z,18.30
2018-05-12T07:38:23.669Z,18.40
2018-05-12T07:40:51.166Z,18.40
2018-05-12T07:43:19.453Z,18.50
2018-05-12T07:45:46.954Z,18.50
2018-05-12T07:48:14.461Z,18.60
2018-05-12T07:50:41.987Z,18.60
2018-05-12T07:53:09.485Z,18.70
2018-05-12T07:55:37.009Z,18.70
2018-05-12T07:58:05.277Z,18.80
2018-05-12T08:00:33.573Z,18.90
2018-05-12T08:03:01.065Z,18.90
2018-05-12T08:05:28.617Z,19.10
2018-05-12T08:07:56.134Z,19.20
2018-05-12T08:10:23.653Z,19.30
2018-05-12T08:12:51.188Z,19.40
2018-05-12T08:15:19.526Z,19.50
2018-05-12T08:17:47.796Z,19.60
2018-05-12T08:20:15.294Z,19.60
2018-05-12T08:22:43.589Z,19.90
2018-05-12T08:25:11.090Z,19.80
2018-05-12T08:27:38.612Z,19.90
2018-05-12T08:30:06.873Z,20.20
2018-05-12T08:32:34.394Z,20.20
2018-05-12T08:35:01.906Z,20.30
2018-05-12T08:37:29.433Z,20.40
2018-05-12T08:39:56.934Z,20.40
2018-05-12T08:42:24.433Z,20.60
2018-05-12T08:44:51.958Z,20.70
2018-05-12T08:47:19.453Z,20.70
2018-05-12T08:49:46.988Z,20.80
2018-05-12T08:52:14.489Z,20.80
2018-05-12T08:54:42.013Z,21.10
2018-05-12T08:57:09.513Z,21.10
2018-05-12T08:59:37.038Z,21.20
2018-05-12T09:02:05.301Z,21.40
2018-05-12T09:04:32.837Z,21.40
2018-05-12T09:07:00.338Z,21.50
2018-05-12T09:09:27.837Z,21.50
2018-05-12T09:11:56.133Z,21.50
2018-05-12T09:14:24.404Z,21.50
2018-05-12T09:16:51.936Z,21.50
2018-05-12T09:19:19.525Z,21.70
2018-05-12T09:21:47.748Z,21.90
2018-05-12T09:24:16.021Z,21.90
2018-05-12T09:26:43.542Z,21.90
2018-05-12T09:29:11.045Z,22.00
2018-05-12T09:31:38.649Z,22.10
2018-05-12T09:34:06.921Z,22.40
2018-05-12T09:36:34.429Z,22.40
2018-05-12T09:39:01.957Z,22.60
2018-05-12T09:41:29.465Z,22.60
2018-05-12T09:43:56.989Z,22.70
2018-05-12T09:46:24.490Z,22.70
2018-05-12T09:48:52.775Z,22.90
2018-05-12T09:51:21.039Z,23.00
2018-05-12T09:53:48.561Z,23.00
2018-05-12T09:56:16.061Z,23.20
2018-05-12T09:58:43.602Z,23.20
2018-05-12T10:01:11.106Z,23.40
2018-05-12T10:03:39.373Z,23.60
2018-05-12T10:06:06.897Z,23.50
2018-05-12T10:08:35.161Z,23.60
2018-05-12T10:11:02.681Z,23.60
2018-05-12T10:13:32.550Z,23.50
2018-05-12T10:16:00.073Z,23.30
2018-05-12T10:18:27.575Z,23.30
2018-05-12T10:20:55.105Z,23.10
2018-05-12T10:23:22.673Z,23.10
2018-05-12T10:25:50.939Z,23.50
2018-05-12T10:28:18.486Z,23.50
2018-05-12T10:30:45.997Z,23.80
2018-05-12T10:33:14.290Z,24.10
2018-05-12T10:35:41.816Z,24.10
2018-05-12T10:38:09.399Z,24.30
2018-05-12T10:40:36.868Z,24.60
2018-05-12T10:43:04.391Z,24.80
2018-05-12T10:45:31.888Z,24.80
2018-05-12T10:47:59.420Z,25.00
2018-05-12T10:50:26.921Z,24.90
2018-05-12T10:52:54.426Z,25.00
2018-05-12T10:55:21.945Z,25.00
2018-05-12T10:57:49.490Z,25.20
2018-05-12T11:00:17.786Z,25.20
2018-05-12T11:02:45.285Z,25.20
2018-05-12T11:05:12.821Z,25.50
2018-05-12T11:07:41.089Z,25.90
2018-05-12T11:10:08.612Z,25.80
2018-05-12T11:12:36.114Z,25.90
2018-05-12T11:15:03.667Z,25.90
2018-05-12T11:17:31.169Z,26.10
2018-05-12T11:19:58.712Z,26.20
2018-05-12T11:22:26.233Z,26.30
2018-05-12T11:24:53.737Z,26.50
2018-05-12T11:27:21.262Z,26.50
2018-05-12T11:29:49.529Z,27.10
2018-05-12T11:32:17.090Z,27.00
2018-05-12T11:34:45.518Z,27.00
2018-05-12T11:37:13.813Z,27.10
2018-05-12T11:39:41.317Z,27.10
2018-05-12T11:42:08.849Z,26.90
2018-05-12T11:44:37.128Z,27.00
2018-05-12T11:47:05.408Z,26.80
2018-05-12T11:49:32.932Z,26.80
2018-05-12T11:52:00.442Z,27.00
2018-05-12T11:54:27.965Z,26.90
2018-05-12T11:56:55.465Z,27.50
2018-05-12T11:59:22.986Z,27.30
2018-05-12T12:01:50.511Z,27.40
2018-05-12T12:04:18.033Z,27.90
2018-05-12T12:06:45.546Z,28.30
2018-05-12T12:09:13.104Z,28.20
2018-05-12T12:11:40.609Z,28.60
2018-05-12T12:14:08.108Z,28.90
2018-05-12T12:16:35.706Z,29.10
2018-05-12T12:19:03.181Z,29.10
2018-05-12T12:21:30.709Z,29.00
2018-05-12T12:23:58.985Z,29.50
2018-05-12T12:26:27.276Z,29.50
2018-05-12T12:28:55.560Z,29.40
2018-05-12T12:31:23.092Z,29.40
2018-05-12T12:33:51.362Z,29.00
2018-05-12T12:36:18.889Z,29.00
2018-05-12T12:38:47.158Z,29.40
2018-05-12T12:41:14.668Z,29.30
2018-05-12T12:43:42.207Z,29.00
2018-05-12T12:46:09.713Z,28.80
2018-05-12T12:48:37.238Z,29.10
2018-05-12T12:51:04.736Z,28.80
2018-05-12T12:53:32.547Z,29.00
2018-05-12T12:56:00.050Z,28.60
2018-05-12T12:58:27.664Z,28.80
2018-05-12T13:00:55.884Z,28.90
2018-05-12T13:03:23.387Z,28.90
2018-05-12T13:05:50.910Z,29.10
2018-05-12T13:08:18.573Z,28.90
2018-05-12T13:10:46.986Z,29.20
2018-05-12T13:13:14.489Z,29.20
2018-05-12T13:15:42.053Z,29.40
2018-05-12T13:18:09.553Z,29.30
2018-05-12T13:20:37.841Z,29.20
2018-05-12T13:23:06.109Z,28.80
2018-05-12T13:25:33.609Z,28.80
2018-05-12T13:28:01.985Z,28.90
2018-05-12T13:30:29.425Z,29.00
2018-05-12T13:32:56.948Z,28.80
2018-05-12T13:35:24.459Z,28.70
2018-05-12T13:37:51.992Z,29.00
2018-05-12T13:40:19.593Z,28.90
2018-05-12T13:42:47.053Z,29.10
2018-05-12T13:45:14.557Z,29.00
2018-05-12T13:47:42.085Z,29.20
2018-05-12T13:50:09.590Z,29.30
2018-05-12T13:52:37.097Z,29.50
2018-05-12T13:55:05.407Z,29.50
2018-05-12T13:57:32.913Z,29.40
2018-05-12T14:00:00.438Z,29.70
2018-05-12T14:02:27.945Z,29.30
2018-05-12T14:04:55.466Z,29.40
2018-05-12T14:07:23.869Z,29.60
2018-05-12T14:09:51.314Z,29.70
2018-05-12T14:12:19.585Z,29.50
2018-05-12T14:14:47.090Z,29.50
2018-05-12T14:17:14.634Z,29.40
2018-05-12T14:19:42.137Z,29.10
2018-05-12T14:22:09.656Z,28.70
2018-05-12T14:24:37.168Z,28.70
2018-05-12T14:27:05.460Z,28.80
2018-05-12T14:29:32.965Z,28.80
2018-05-12T14:32:00.489Z,28.80
2018-05-12T14:34:28.761Z,28.50
2018-05-12T14:36:56.266Z,28.50
2018-05-12T14:39:23.793Z,28.70
2018-05-12T14:41:51.302Z,28.50
2018-05-12T14:44:18.829Z,28.60
2018-05-12T14:46:46.334Z,28.40
2018-05-12T14:49:14.625Z,27.90
2018-05-12T14:51:42.893Z,27.90
2018-05-12T14:54:10.425Z,27.80
2018-05-12T14:56:37.925Z,27.90
2018-05-12T14:59:05.430Z,27.70
2018-05-12T15:01:32.953Z,27.60
2018-05-12T15:04:00.454Z,27.40
2018-05-12T15:06:28.746Z,27.00
2018-05-12T15:08:57.015Z,27.20
2018-05-12T15:11:24.537Z,27.20
2018-05-12T15:13:52.038Z,27.20
2018-05-12T15:16:19.562Z,27.20
2018-05-12T15:18:47.073Z,27.30
2018-05-12T15:21:14.622Z,27.20
2018-05-12T15:23:42.155Z,27.40
2018-05-12T15:26:10.429Z,27.20
2018-05-12T15:28:37.962Z,27.20
2018-05-12T15:31:05.469Z,27.40
2018-05-12T15:33:32.994Z,27.30
2018-05-12T15:36:00.493Z,27.10
2018-05-12T15:38:28.017Z,27.10
2018-05-12T15:40:55.526Z,27.00
2018-05-12T15:43:23.057Z,26.80
2018-05-12T15:45:50.573Z,26.60
2018-05-12T15:48:18.080Z,26.60
2018-05-12T15:50:46.375Z,26.50
2018-05-12T15:53:14.642Z,26.50
2018-05-12T15:55:42.161Z,26.50
2018-05-12T15:58:09.661Z,26.20
2018-05-12T16:00:37.185Z,26.10
2018-05-12T16:03:04.727Z,25.80
2018-05-12T16:05:32.237Z,25.80
2018-05-12T16:07:59.741Z,25.60
2018-05-12T16:10:27.255Z,25.50
2018-05-12T16:12:55.565Z,25.50
2018-05-12T16:15:23.070Z,25.40
2018-05-12T16:17:50.593Z,25.50
2018-05-12T16:20:18.172Z,25.50
2018-05-12T16:22:45.648Z,25.30
2018-05-12T16:25:13.157Z,25.30
2018-05-12T16:27:40.697Z,25.20
2018-05-12T16:30:08.242Z,25.20
2018-05-12T16:32:35.785Z,25.10
2018-05-12T16:35:03.296Z,24.90
2018-05-12T16:37:30.801Z,24.90
2018-05-12T16:39:58.326Z,24.70
2018-05-12T16:42:25.825Z,24.70
2018-05-12T16:44:53.345Z,24.70
2018-05-12T16:47:21.609Z,24.50
2018-05-12T16:49:49.131Z,24.50
2018-05-12T16:52:16.633Z,24.50
2018-05-12T16:54:44.174Z,24.40
2018-05-12T16:57:11.678Z,24.20
2018-05-12T16:59:39.213Z,24.10
2018-05-12T17:02:06.712Z,24.10
2018-05-12T17:04:34.217Z,24.00
2018-05-12T17:07:02.506Z,23.80
2018-05-12T17:09:30.016Z,23.80
2018-05-12T17:11:57.571Z,23.60
2018-05-12T17:14:25.073Z,23.40
2018-05-12T17:16:52.593Z,23.20
2018-05-12T17:19:20.861Z,22.80
2018-05-12T17:21:48.385Z,22.80
2018-05-12T17:24:15.909Z,22.80
2018-05-12T17:26:43.414Z,22.70
2018-05-12T17:29:10.933Z,22.60
2018-05-12T17:31:38.435Z,22.50
2018-05-12T17:34:06.723Z,22.30
2018-05-12T17:36:34.993Z,22.30
2018-05-12T17:39:02.518Z,22.20
2018-05-12T17:41:30.018Z,22.20
2018-05-12T17:43:57.549Z,22.20
2018-05-12T17:46:25.049Z,22.00
2018-05-12T17:48:52.553Z,21.90
2018-05-12T17:51:20.842Z,21.80
2018-05-12T17:53:49.109Z,21.80
2018-05-12T17:56:16.637Z,21.70
2018-05-12T17:58:44.138Z,21.70
2018-05-12T18:01:11.663Z,21.50
2018-05-12T18:03:39.169Z,21.40
2018-05-12T18:06:11.054Z,21.40
2018-05-12T18:08:38.549Z,21.30
2018-05-12T18:11:06.833Z,21.10
2018-05-12T18:13:35.876Z,20.90
2018-05-12T18:16:03.389Z,20.90
2018-05-12T18:18:30.913Z,20.90
2018-05-12T18:20:58.463Z,20.80
2018-05-12T18:23:25.958Z,20.60
2018-05-12T18:25:53.470Z,20.60
2018-05-12T18:28:21.000Z,20.50
2018-05-12T18:30:48.506Z,20.40
2018-05-12T18:33:16.005Z,20.20
2018-05-12T18:35:44.311Z,20.10
2018-05-12T18:38:12.583Z,19.90
2018-05-12T18:40:40.869Z,19.90
2018-05-12T18:43:08.374Z,19.80
2018-05-12T18:45:35.901Z,19.80
2018-05-12T18:48:03.406Z,19.70
2018-05-12T18:50:30.957Z,19.60
2018-05-12T18:52:59.225Z,19.40
2018-05-12T18:55:26.753Z,19.40
2018-05-12T18:57:54.273Z,19.30
2018-05-12T19:00:21.794Z,19.20
2018-05-12T19:02:49.315Z,19.10
2018-05-12T19:05:16.825Z,19.10
2018-05-12T19:07:44.342Z,19.00
2018-05-12T19:10:11.841Z,18.90
2018-05-12T19:12:40.129Z,18.80
2018-05-12T19:15:08.401Z,18.80
2018-05-12T19:17:36.701Z,18.70
2018-05-12T19:20:04.965Z,18.60
2018-05-12T19:22:32.555Z,18.50
2018-05-12T19:25:00.028Z,18.50
2018-05-12T19:27:28.302Z,18.30
2018-05-12T19:29:55.833Z,18.30
2018-05-12T19:32:23.337Z,18.20
2018-05-12T19:34:50.865Z,18.20
2018-05-12T19:37:18.378Z,18.20
2018-05-12T19:39:45.986Z,18.10
2018-05-12T19:42:13.515Z,18.00
2018-05-12T19:44:41.329Z,18.00
2018-05-12T19:47:09.596Z,17.90
2018-05-12T19:49:37.152Z,17.80
2018-05-12T19:52:04.654Z,17.90
2018-05-12T19:54:32.921Z,17.70
2018-05-12T19:57:01.266Z,17.70
2018-05-12T19:59:28.790Z,17.70
2018-05-12T20:01:57.074Z,17.60
2018-05-12T20:04:24.576Z,17.60
2018-05-12T20:06:52.109Z,17.50
2018-05-12T20:09:19.609Z,17.50
2018-05-12T20:11:47.123Z,17.50
2018-05-12T20:14:14.654Z,17.40
2018-05-12T20:16:42.162Z,17.40
2018-05-12T20:19:09.706Z,17.40
2018-05-12T20:21:37.234Z,17.40
2018-05-12T20:24:05.538Z,17.30
2018-05-12T20:26:33.800Z,17.30
2018-05-12T20:29:01.302Z,17.30
2018-05-12T20:31:29.600Z,17.30
2018-05-12T20:33:57.110Z,17.30
2018-05-12T20:36:24.633Z,17.30
2018-05-12T20:38:52.903Z,17.20
2018-05-12T20:41:21.583Z,17.20
2018-05-12T20:43:49.121Z,17.20
2018-05-12T20:46:16.649Z,17.20
2018-05-12T20:48:44.914Z,17.20
2018-05-12T20:51:12.424Z,17.10
2018-05-12T20:53:39.949Z,17.10
2018-05-12T20:56:07.449Z,17.10
2018-05-12T20:58:35.733Z,17.10
2018-05-12T21:01:04.001Z,17.10
2018-05-12T21:03:31.533Z,17.10
2018-05-12T21:05:59.037Z,17.10
2018-05-12T21:08:27.321Z,17.10
2018-05-12T21:10:54.864Z,17.10
2018-05-12T21:13:22.405Z,17.20
2018-05-12T21:15:49.984Z,17.10
2018-05-12T21:18:17.490Z,17.10
2018-05-12T21:20:45.009Z,17.10
2018-05-12T21:23:13.274Z,17.10
2018-05-12T21:25:40.798Z,17.10
2018-05-12T21:28:08.298Z,17.10
2018-05-12T21:30:35.806Z,17.10
2018-05-12T21:33:04.092Z,17.20
2018-05-12T21:35:32.362Z,17.20
2018-05-12T21:37:59.887Z,17.20
2018-05-12T21:40:27.398Z,17.20
2018-05-12T21:42:54.940Z,17.30
2018-05-12T21:45:22.446Z,17.20
2018-05-12T21:47:49.972Z,17.30
2018-05-12T21:50:17.468Z,17.30
2018-05-12T21:52:44.971Z,17.30
2018-05-12T21:55:13.258Z,17.40
2018-05-12T21:57:41.522Z,17.40
2018-05-12T22:00:09.045Z,17.40
2018-05-12T22:02:36.568Z,17.40
2018-05-12T22:05:04.101Z,17.40
2018-05-12T22:07:31.601Z,17.50
2018-05-12T22:09:59.126Z,17.50
2018-05-12T22:12:26.626Z,17.50
2018-05-12T22:14:54.187Z,17.50
2018-05-12T22:17:21.706Z,17.60
2018-05-12T22:19:49.989Z,17.70
2018-05-12T22:22:18.275Z,17.70
2018-05-12T22:24:45.781Z,17.70
2018-05-12T22:27:13.301Z,17.80
2018-05-12T22:29:40.807Z,17.80
2018-05-12T22:32:08.332Z,17.90
2018-05-12T22:34:35.833Z,17.90
2018-05-12T22:37:04.101Z,17.80
2018-05-12T22:39:31.622Z,17.80
2018-05-12T22:41:59.121Z,17.80
2018-05-12T22:44:26.648Z,17.70
2018-05-12T22:46:54.148Z,17.70
2018-05-12T22:49:21.676Z,17.70
2018-05-12T22:51:49.940Z,17.60
2018-05-12T22:54:17.489Z,17.60
2018-05-12T22:56:44.993Z,17.60
2018-05-12T22:59:12.490Z,17.50
2018-05-12T23:01:40.017Z,17.50
2018-05-12T23:04:08.434Z,17.50
2018-05-12T23:06:35.937Z,17.50
2018-05-12T23:09:03.437Z,17.50
2018-05-12T23:11:30.959Z,17.40
2018-05-12T23:13:58.459Z,17.40
2018-05-12T23:16:25.989Z,17.40
2018-05-12T23:18:54.260Z,17.40
2018-05-12T23:21:21.762Z,17.40
2018-05-12T23:23:49.280Z,17.40
2018-05-12T23:26:16.786Z,17.40
2018-05-12T23:28:45.069Z,17.50
2018-05-12T23:31:13.337Z,17.50
2018-05-12T23:33:40.858Z,17.50
2018-05-12T23:36:08.357Z,17.50
2018-05-12T23:38:35.876Z,17.50
2018-05-12T23:41:04.143Z,17.50
2018-05-12T23:43:31.747Z,17.50
2018-05-12T23:45:59.201Z,17.50
2018-05-12T23:48:27.465Z,17.60
2018-05-12T23:50:54.986Z,17.60
2018-05-12T23:53:22.490Z,17.60
2018-05-12T23:55:50.011Z,17.70
2018-05-12T23:58:17.548Z,17.60
